Time;durP1;ratioP1;P1;durP2;ratioP2;P2;SDS_P1;SDS_P2;PMS_P1;PMS_P2;Temp;Humidity;BMP_temperature;BMP_pressure;BME280_temperature;BME280_humidity;BME280_pressure;Samples;Min_cycle;Max_cycle;Signal;HPM_P1;HPM_P2
2022/08/06 00:01:00;;;;;;;6.50;1.58;;;;;;;;;;5014903;28;20698;-65
2022/08/06 00:03:26;;;;;;;4.10;1.40;;;;;;;;;;5015476;28;20212;-68
2022/08/06 00:05:51;;;;;;;8.45;1.63;;;;;;;;;;5014722;28;20232;-70
2022/08/06 00:08:16;;;;;;;6.45;1.60;;;;;;;;;;5014916;28;20660;-70
2022/08/06 00:10:42;;;;;;;6.97;1.50;;;;;;;;;;5015559;28;20217;-70
2022/08/06 00:13:07;;;;;;;6.13;1.50;;;;;;;;;;5014133;28;20737;-70
2022/08/06 00:15:33;;;;;;;8.50;1.65;;;;;;;;;;5015286;28;20216;-69
2022/08/06 00:17:58;;;;;;;8.80;1.35;;;;;;;;;;5014866;28;20221;-68
2022/08/06 00:20:23;;;;;;;7.85;1.45;;;;;;;;;;5014504;28;20319;-70
2022/08/06 00:22:48;;;;;;;6.50;1.55;;;;;;;;;;5015150;28;20220;-70
2022/08/06 00:25:14;;;;;;;8.23;1.40;;;;;;;;;;5014467;28;20244;-70
2022/08/06 00:27:39;;;;;;;5.43;1.63;;;;;;;;;;5013826;28;20212;-69
2022/08/06 00:30:05;;;;;;;7.93;1.67;;;;;;;;;;5014454;28;20213;-71
2022/08/06 00:32:30;;;;;;;7.20;1.60;;;;;;;;;;5014491;28;20574;-69
2022/08/06 00:34:56;;;;;;;9.25;1.60;;;;;;;;;;5014573;28;20623;-69
2022/08/06 00:37:21;;;;;;;6.78;1.30;;;;;;;;;;5014393;28;20303;-70
2022/08/06 00:39:46;;;;;;;8.20;1.83;;;;;;;;;;5012772;28;20250;-70
2022/08/06 00:42:11;;;;;;;11.68;2.15;;;;;;;;;;5014562;28;20705;-70
2022/08/06 00:44:37;;;;;;;6.45;1.35;;;;;;;;;;5014821;28;20220;-70
2022/08/06 00:47:02;;;;;;;6.55;1.30;;;;;;;;;;5013359;28;20779;-71
2022/08/06 00:49:27;;;;;;;4.60;1.17;;;;;;;;;;5014616;28;20208;-70
2022/08/06 00:51:52;;;;;;;7.55;1.38;;;;;;;;;;5014349;28;20228;-70
2022/08/06 00:54:18;;;;;;;6.97;1.50;;;;;;;;;;5013055;28;20699;-70
2022/08/06 00:56:44;;;;;;;8.02;1.25;;;;;;;;;;5013539;28;20259;-70
2022/08/06 00:59:09;;;;;;;6.60;1.38;;;;;;;;;;5013852;28;20237;-70
2022/08/06 01:01:34;;;;;;;7.80;2.03;;;;;;;;;;5013474;28;20205;-71
2022/08/06 01:03:59;;;;;;;7.38;1.60;;;;;;;;;;5014741;28;20208;-70
2022/08/06 01:06:25;;;;;;;7.05;1.20;;;;;;;;;;5013565;28;20228;-71
2022/08/06 01:08:50;;;;;;;6.57;1.50;;;;;;;;;;5013526;28;20235;-70
2022/08/06 01:11:15;;;;;;;5.88;1.40;;;;;;;;;;5013881;28;20221;-69
2022/08/06 01:13:40;;;;;;;6.47;1.25;;;;;;;;;;5014522;28;20296;-72
2022/08/06 01:16:10;;;;;;;7.85;1.33;;;;;;;;;;4990827;28;20229;-69
2022/08/06 01:18:41;;;;;;;7.78;1.20;;;;;;;;;;4988269;28;20892;-71
2022/08/06 01:21:10;;;;;;;5.57;1.05;;;;;;;;;;4992483;28;20213;-69
2022/08/06 01:23:38;;;;;;;6.22;1.30;;;;;;;;;;5002852;28;20227;-70
2022/08/06 01:26:17;;;;;;;6.65;1.30;;;;;;;;;;5002023;28;20224;-69
2022/08/06 01:28:43;;;;;;;6.68;1.30;;;;;;;;;;5003089;28;20216;-69
2022/08/06 01:31:10;;;;;;;6.82;1.30;;;;;;;;;;5002005;28;20221;-69
2022/08/06 01:33:39;;;;;;;6.57;1.35;;;;;;;;;;4991896;28;20787;-69
2022/08/06 01:36:06;;;;;;;6.28;1.35;;;;;;;;;;5000949;28;20231;-71
2022/08/06 01:38:32;;;;;;;7.43;1.50;;;;;;;;;;4991240;28;20229;-69
2022/08/06 01:40:58;;;;;;;7.43;1.67;;;;;;;;;;4993754;28;20296;-70
2022/08/06 01:43:23;;;;;;;8.02;1.10;;;;;;;;;;4992838;28;20307;-69
2022/08/06 01:45:50;;;;;;;5.38;1.13;;;;;;;;;;5001861;28;20323;-69
2022/08/06 01:48:17;;;;;;;7.57;1.10;;;;;;;;;;5001720;28;20235;-69
2022/08/06 01:50:45;;;;;;;7.07;1.25;;;;;;;;;;4989813;28;20221;-69
2022/08/06 01:53:11;;;;;;;6.97;1.35;;;;;;;;;;4990420;28;20249;-69
2022/08/06 01:55:39;;;;;;;9.68;1.38;;;;;;;;;;5001306;28;20220;-70
2022/08/06 01:58:04;;;;;;;5.43;1.50;;;;;;;;;;5001556;28;20290;-69
2022/08/06 02:00:29;;;;;;;6.03;1.23;;;;;;;;;;4981469;28;20217;-70
2022/08/06 02:02:55;;;;;;;10.07;1.52;;;;;;;;;;4993751;28;20239;-70
2022/08/06 02:05:21;;;;;;;5.60;1.30;;;;;;;;;;4993898;28;20262;-70
2022/08/06 02:07:47;;;;;;;7.85;1.65;;;;;;;;;;5000698;28;20228;-70
2022/08/06 02:10:12;;;;;;;6.32;1.20;;;;;;;;;;5002628;28;20605;-70
2022/08/06 02:12:37;;;;;;;5.30;1.30;;;;;;;;;;5002504;28;20223;-70
2022/08/06 02:15:05;;;;;;;3.60;0.98;;;;;;;;;;5002555;28;20260;-69
2022/08/06 02:17:30;;;;;;;5.97;1.20;;;;;;;;;;5001966;28;20216;-70
2022/08/06 02:19:59;;;;;;;3.22;1.10;;;;;;;;;;5002821;28;20239;-70
2022/08/06 02:22:24;;;;;;;7.97;1.40;;;;;;;;;;4998894;28;21249;-70
2022/08/06 02:24:50;;;;;;;5.40;1.08;;;;;;;;;;4982664;28;20299;-69
2022/08/06 02:27:15;;;;;;;6.80;1.13;;;;;;;;;;4975207;28;20529;-69
2022/08/06 02:29:41;;;;;;;5.20;1.17;;;;;;;;;;4979295;28;20657;-69
2022/08/06 02:32:06;;;;;;;7.15;1.35;;;;;;;;;;4999726;28;20224;-68
2022/08/06 02:34:31;;;;;;;8.85;1.52;;;;;;;;;;5002598;28;20733;-70
2022/08/06 02:37:05;;;;;;;6.72;1.52;;;;;;;;;;5002783;28;20227;-70
2022/08/06 02:39:32;;;;;;;5.38;1.40;;;;;;;;;;4996974;28;20240;-70
2022/08/06 02:42:01;;;;;;;5.57;1.10;;;;;;;;;;4983573;28;20217;-70
2022/08/06 02:44:38;;;;;;;3.70;1.10;;;;;;;;;;4999105;28;20208;-70
2022/08/06 02:47:23;;;;;;;6.85;1.52;;;;;;;;;;4992547;28;20417;-69
2022/08/06 02:49:50;;;;;;;6.03;1.38;;;;;;;;;;4994250;28;20212;-70
2022/08/06 02:52:17;;;;;;;5.93;1.27;;;;;;;;;;4994416;28;20209;-70
2022/08/06 02:54:43;;;;;;;5.53;1.35;;;;;;;;;;4982283;28;20585;-70
2022/08/06 02:57:10;;;;;;;6.10;1.60;;;;;;;;;;5000710;28;20212;-69
2022/08/06 02:59:38;;;;;;;5.50;1.30;;;;;;;;;;4998326;28;20225;-70
2022/08/06 03:02:03;;;;;;;9.05;1.80;;;;;;;;;;5002734;28;20550;-72
2022/08/06 03:04:29;;;;;;;7.47;1.48;;;;;;;;;;5005125;28;20212;-72
2022/08/06 03:06:54;;;;;;;7.50;1.52;;;;;;;;;;5004304;28;20316;-73
2022/08/06 03:09:19;;;;;;;4.35;1.40;;;;;;;;;;4998384;28;20266;-72
2022/08/06 03:11:45;;;;;;;6.78;1.50;;;;;;;;;;4997666;28;20406;-72
2022/08/06 03:14:11;;;;;;;6.93;1.25;;;;;;;;;;4997768;28;20236;-71
2022/08/06 03:16:36;;;;;;;8.32;1.40;;;;;;;;;;5004952;28;20576;-72
2022/08/06 03:19:02;;;;;;;5.88;1.20;;;;;;;;;;5004294;28;20578;-71
2022/08/06 03:21:27;;;;;;;4.03;1.20;;;;;;;;;;5004559;28;20266;-73
2022/08/06 03:23:52;;;;;;;4.32;1.20;;;;;;;;;;5001464;28;20240;-72
2022/08/06 03:26:17;;;;;;;4.70;1.10;;;;;;;;;;4992515;28;20252;-71
2022/08/06 03:28:43;;;;;;;3.95;1.10;;;;;;;;;;5004404;28;20331;-72
2022/08/06 03:31:08;;;;;;;6.13;1.20;;;;;;;;;;4994714;28;20877;-71
2022/08/06 03:33:33;;;;;;;4.57;1.10;;;;;;;;;;4976488;28;20221;-71
2022/08/06 03:36:00;;;;;;;5.38;1.38;;;;;;;;;;4977569;28;20236;-71
2022/08/06 03:38:25;;;;;;;5.93;1.08;;;;;;;;;;4995274;28;20292;-71
2022/08/06 03:40:50;;;;;;;6.05;1.60;;;;;;;;;;5003835;28;20295;-72
2022/08/06 03:43:16;;;;;;;7.90;1.40;;;;;;;;;;5003720;28;20633;-71
2022/08/06 03:45:44;;;;;;;6.45;1.50;;;;;;;;;;5004416;28;20248;-71
2022/08/06 03:48:11;;;;;;;8.05;1.30;;;;;;;;;;5004006;28;20216;-71
2022/08/06 03:50:38;;;;;;;5.50;1.30;;;;;;;;;;5004968;28;20216;-72
2022/08/06 03:53:04;;;;;;;5.85;1.20;;;;;;;;;;4991319;28;20213;-71
2022/08/06 03:55:31;;;;;;;6.45;1.25;;;;;;;;;;4995213;28;20247;-69
2022/08/06 03:57:57;;;;;;;5.32;1.58;;;;;;;;;;4995648;28;20212;-71
2022/08/06 04:00:24;;;;;;;6.15;1.30;;;;;;;;;;4996340;28;20248;-70
2022/08/06 04:02:50;;;;;;;5.78;1.40;;;;;;;;;;5004896;28;20945;-70
2022/08/06 04:05:17;;;;;;;4.45;1.00;;;;;;;;;;5004387;28;20223;-69
2022/08/06 04:07:42;;;;;;;9.07;1.50;;;;;;;;;;5004976;28;20271;-74
2022/08/06 04:10:07;;;;;;;9.10;1.45;;;;;;;;;;5003119;28;20232;-73
2022/08/06 04:12:33;;;;;;;7.32;1.33;;;;;;;;;;5003404;28;20683;-72
2022/08/06 04:14:58;;;;;;;4.45;1.40;;;;;;;;;;5003478;28;21118;-72
2022/08/06 04:17:24;;;;;;;2.72;1.20;;;;;;;;;;4996325;28;20208;-72
2022/08/06 04:19:49;;;;;;;8.43;1.30;;;;;;;;;;4996946;28;20205;-72
2022/08/06 04:22:14;;;;;;;5.03;1.83;;;;;;;;;;4997043;28;20687;-72
2022/08/06 04:24:40;;;;;;;6.03;1.30;;;;;;;;;;4999371;28;20554;-73
2022/08/06 04:27:05;;;;;;;3.78;1.20;;;;;;;;;;4985380;28;20224;-70
2022/08/06 04:29:30;;;;;;;4.32;1.27;;;;;;;;;;5003447;28;20299;-71
2022/08/06 04:31:56;;;;;;;4.82;1.10;;;;;;;;;;5002996;28;20699;-70
2022/08/06 04:34:22;;;;;;;5.10;1.38;;;;;;;;;;5004206;28;20224;-72
2022/08/06 04:36:48;;;;;;;5.53;1.70;;;;;;;;;;5003633;28;20267;-71
2022/08/06 04:39:13;;;;;;;4.30;1.17;;;;;;;;;;4983868;28;20797;-71
2022/08/06 04:41:38;;;;;;;9.65;1.30;;;;;;;;;;4994670;28;20213;-71
2022/08/06 04:44:03;;;;;;;4.15;1.30;;;;;;;;;;4996151;28;20228;-71
2022/08/06 04:46:29;;;;;;;5.22;1.40;;;;;;;;;;5000331;28;20208;-75
2022/08/06 04:48:54;;;;;;;6.17;1.30;;;;;;;;;;4984885;28;20417;-72
2022/08/06 04:51:21;;;;;;;6.93;1.58;;;;;;;;;;4989460;28;20558;-77
2022/08/06 04:53:46;;;;;;;5.35;1.30;;;;;;;;;;4999616;28;20522;-77
2022/08/06 04:56:12;;;;;;;4.88;1.05;;;;;;;;;;4989639;28;20776;-72
2022/08/06 04:58:37;;;;;;;3.65;1.00;;;;;;;;;;4987880;28;20244;-70
2022/08/06 05:01:02;;;;;;;6.70;1.17;;;;;;;;;;4981175;28;20233;-70
2022/08/06 05:03:28;;;;;;;5.32;1.20;;;;;;;;;;4978078;28;20213;-72
2022/08/06 05:06:04;;;;;;;3.90;1.10;;;;;;;;;;4980788;28;20241;-73
2022/08/06 05:08:30;;;;;;;3.00;1.05;;;;;;;;;;4979953;28;20240;-71
2022/08/06 05:11:04;;;;;;;4.07;1.20;;;;;;;;;;4988374;28;20243;-75
2022/08/06 05:13:30;;;;;;;3.17;1.00;;;;;;;;;;4984392;28;20311;-76
2022/08/06 05:15:56;;;;;;;5.72;1.13;;;;;;;;;;4985413;28;20246;-75
2022/08/06 05:18:24;;;;;;;2.78;0.77;;;;;;;;;;4984423;28;20693;-77
2022/08/06 05:20:50;;;;;;;6.05;1.00;;;;;;;;;;4985435;28;20209;-77
2022/08/06 05:23:32;;;;;;;4.32;1.40;;;;;;;;;;4982575;28;20205;-78
2022/08/06 05:25:57;;;;;;;3.80;1.05;;;;;;;;;;4978094;28;20209;-77
2022/08/06 05:28:23;;;;;;;3.58;0.90;;;;;;;;;;4974149;28;20282;-79
2022/08/06 05:30:49;;;;;;;2.35;0.88;;;;;;;;;;4981880;28;20216;-83
2022/08/06 05:33:33;;;;;;;2.22;0.82;;;;;;;;;;4986995;28;20233;-74
2022/08/06 05:35:58;;;;;;;3.30;0.82;;;;;;;;;;4984964;28;20221;-75
2022/08/06 05:38:25;;;;;;;3.85;1.00;;;;;;;;;;4984233;28;20209;-76
2022/08/06 05:40:51;;;;;;;11.38;1.35;;;;;;;;;;4992072;28;20228;-76
2022/08/06 05:43:17;;;;;;;4.55;1.15;;;;;;;;;;4984219;28;20973;-74
2022/08/06 05:45:42;;;;;;;5.20;1.10;;;;;;;;;;4981932;28;20544;-74
2022/08/06 05:48:07;;;;;;;3.60;0.90;;;;;;;;;;4979665;28;21241;-72
2022/08/06 05:50:34;;;;;;;8.18;1.10;;;;;;;;;;4975749;28;20225;-74
2022/08/06 05:53:04;;;;;;;4.40;1.10;;;;;;;;;;4986263;28;20821;-70
2022/08/06 05:55:29;;;;;;;5.13;1.23;;;;;;;;;;5001091;28;20228;-70
2022/08/06 05:57:56;;;;;;;6.03;1.10;;;;;;;;;;5003157;28;20266;-71
2022/08/06 06:00:22;;;;;;;7.63;1.00;;;;;;;;;;4998253;28;20221;-70
2022/08/06 06:02:48;;;;;;;2.95;1.00;;;;;;;;;;4998332;28;20772;-70
2022/08/06 06:05:14;;;;;;;6.03;1.00;;;;;;;;;;4983483;28;20237;-69
2022/08/06 06:07:39;;;;;;;3.97;0.88;;;;;;;;;;4983300;28;20229;-70
2022/08/06 06:10:05;;;;;;;3.35;0.82;;;;;;;;;;4992559;28;20224;-69
2022/08/06 06:12:30;;;;;;;4.32;1.10;;;;;;;;;;4994923;28;20289;-69
2022/08/06 06:14:56;;;;;;;7.13;1.20;;;;;;;;;;4993684;28;20256;-69
2022/08/06 06:17:41;;;;;;;6.45;1.20;;;;;;;;;;5001600;28;20220;-70
2022/08/06 06:20:18;;;;;;;5.93;1.10;;;;;;;;;;5001628;28;20224;-71
2022/08/06 06:22:49;;;;;;;5.50;1.02;;;;;;;;;;5001737;28;20220;-69
2022/08/06 06:25:18;;;;;;;6.72;1.48;;;;;;;;;;4997388;28;20221;-69
2022/08/06 06:27:46;;;;;;;6.80;1.20;;;;;;;;;;5002940;28;20213;-70
2022/08/06 06:30:25;;;;;;;4.93;1.05;;;;;;;;;;5002060;28;20547;-69
2022/08/06 06:32:51;;;;;;;4.78;1.00;;;;;;;;;;4993364;28;20505;-71
2022/08/06 06:35:19;;;;;;;6.30;1.00;;;;;;;;;;4994702;28;20225;-69
2022/08/06 06:37:45;;;;;;;5.00;0.80;;;;;;;;;;4991465;28;20658;-69
2022/08/06 06:40:15;;;;;;;3.55;0.80;;;;;;;;;;4983113;28;20228;-69
2022/08/06 06:42:42;;;;;;;3.88;0.90;;;;;;;;;;5002693;28;20712;-70
2022/08/06 06:45:12;;;;;;;4.35;0.93;;;;;;;;;;5001827;28;20220;-68
2022/08/06 06:47:49;;;;;;;5.47;0.95;;;;;;;;;;5001925;28;20220;-69
2022/08/06 06:50:17;;;;;;;2.05;0.63;;;;;;;;;;5001497;28;20211;-70
2022/08/06 06:52:43;;;;;;;4.10;0.82;;;;;;;;;;4994945;28;20617;-70
2022/08/06 06:55:12;;;;;;;3.72;0.52;;;;;;;;;;4975280;28;20273;-70
2022/08/06 06:57:38;;;;;;;3.30;0.70;;;;;;;;;;4992624;28;20741;-69
2022/08/06 07:00:04;;;;;;;4.63;0.80;;;;;;;;;;4988683;28;20232;-68
2022/08/06 07:02:31;;;;;;;5.13;0.70;;;;;;;;;;4997197;28;20235;-75
2022/08/06 07:04:56;;;;;;;4.85;0.85;;;;;;;;;;5012700;28;20213;-75
2022/08/06 07:07:21;;;;;;;3.50;0.75;;;;;;;;;;5010130;28;20236;-75
2022/08/06 07:09:47;;;;;;;4.78;0.80;;;;;;;;;;5011172;28;20259;-74
2022/08/06 07:12:12;;;;;;;4.47;0.75;;;;;;;;;;5012392;28;20212;-75
2022/08/06 07:14:38;;;;;;;2.90;0.52;;;;;;;;;;5011452;28;20220;-74
2022/08/06 07:17:03;;;;;;;3.53;0.60;;;;;;;;;;5011023;28;20274;-74
2022/08/06 07:19:28;;;;;;;4.95;0.98;;;;;;;;;;5011332;28;20223;-74
2022/08/06 07:21:54;;;;;;;2.67;0.75;;;;;;;;;;5010565;28;20688;-76
2022/08/06 07:24:21;;;;;;;3.90;0.50;;;;;;;;;;5003391;28;20240;-72
2022/08/06 07:26:46;;;;;;;4.30;0.90;;;;;;;;;;4991716;28;20248;-73
2022/08/06 07:29:12;;;;;;;3.25;0.70;;;;;;;;;;4991549;28;20237;-71
2022/08/06 07:31:37;;;;;;;4.80;0.77;;;;;;;;;;4991317;28;20727;-72
2022/08/06 07:34:03;;;;;;;5.93;0.93;;;;;;;;;;4990399;28;20228;-71
2022/08/06 07:36:31;;;;;;;3.75;0.70;;;;;;;;;;4991618;28;20580;-71
2022/08/06 07:38:59;;;;;;;4.75;0.70;;;;;;;;;;5004211;28;20236;-72
2022/08/06 07:41:24;;;;;;;2.45;0.60;;;;;;;;;;5011285;28;20205;-72
2022/08/06 07:43:57;;;;;;;2.97;0.60;;;;;;;;;;5012434;28;20212;-72
2022/08/06 07:46:37;;;;;;;7.13;0.80;;;;;;;;;;5010535;28;20205;-73
2022/08/06 07:49:03;;;;;;;3.90;0.63;;;;;;;;;;5012622;28;20319;-71
2022/08/06 07:51:30;;;;;;;3.83;0.70;;;;;;;;;;5015784;28;20255;-72
2022/08/06 07:53:55;;;;;;;5.80;0.60;;;;;;;;;;5015542;28;20220;-71
2022/08/06 07:56:21;;;;;;;2.97;0.57;;;;;;;;;;5014344;28;20746;-71
2022/08/06 07:58:47;;;;;;;2.10;0.60;;;;;;;;;;5015620;28;20219;-71
2022/08/06 08:01:12;;;;;;;4.13;0.70;;;;;;;;;;5013509;28;20213;-70
2022/08/06 08:06:22;;;;;;;3.65;0.82;;;;;;;;;;5013938;28;20247;-71
2022/08/06 08:08:56;;;;;;;2.85;0.70;;;;;;;;;;5015498;28;20223;-71
2022/08/06 08:11:23;;;;;;;3.60;0.68;;;;;;;;;;5014076;28;20278;-71
2022/08/06 08:13:48;;;;;;;4.45;0.65;;;;;;;;;;5014081;28;20219;-71
2022/08/06 08:16:14;;;;;;;3.20;0.65;;;;;;;;;;5012667;28;20319;-70
2022/08/06 08:18:40;;;;;;;3.05;0.90;;;;;;;;;;5015461;28;20212;-71
2022/08/06 08:21:05;;;;;;;4.45;0.60;;;;;;;;;;5014740;28;20275;-70
2022/08/06 08:23:30;;;;;;;5.75;1.05;;;;;;;;;;5014680;28;20588;-70
2022/08/06 08:25:56;;;;;;;2.53;0.55;;;;;;;;;;5013680;28;20216;-71
2022/08/06 08:28:21;;;;;;;2.92;0.60;;;;;;;;;;5013642;28;20216;-72
2022/08/06 08:30:47;;;;;;;4.13;0.63;;;;;;;;;;5014013;28;20212;-71
2022/08/06 08:33:12;;;;;;;2.63;0.52;;;;;;;;;;5014859;28;20235;-71
2022/08/06 08:35:38;;;;;;;4.25;0.60;;;;;;;;;;5014918;28;20235;-72
2022/08/06 08:38:03;;;;;;;2.72;0.50;;;;;;;;;;5013668;28;20746;-69
2022/08/06 08:40:28;;;;;;;5.10;0.60;;;;;;;;;;5014645;28;20227;-72
2022/08/06 08:42:55;;;;;;;2.45;0.40;;;;;;;;;;5014811;28;20234;-72
2022/08/06 08:45:20;;;;;;;2.40;0.50;;;;;;;;;;5012579;28;20401;-71
2022/08/06 08:47:47;;;;;;;3.53;0.80;;;;;;;;;;5014816;28;20343;-70
2022/08/06 08:50:13;;;;;;;8.18;1.00;;;;;;;;;;5013006;28;20710;-71
2022/08/06 08:52:38;;;;;;;2.50;0.63;;;;;;;;;;5012638;28;20213;-72
2022/08/06 08:55:04;;;;;;;3.20;1.05;;;;;;;;;;5012861;28;20224;-69
2022/08/06 08:57:30;;;;;;;2.13;0.50;;;;;;;;;;5014376;28;20216;-71
2022/08/06 08:59:55;;;;;;;2.65;0.50;;;;;;;;;;5011657;28;20569;-72
2022/08/06 09:02:20;;;;;;;2.97;0.60;;;;;;;;;;5012613;28;20208;-72
2022/08/06 09:04:46;;;;;;;3.67;0.70;;;;;;;;;;5014642;28;20271;-77
2022/08/06 09:07:11;;;;;;;2.47;0.50;;;;;;;;;;5011829;28;20267;-76
2022/08/06 09:09:37;;;;;;;3.10;0.65;;;;;;;;;;5014387;28;20216;-75
2022/08/06 09:12:03;;;;;;;1.75;0.50;;;;;;;;;;5013785;28;20212;-72
2022/08/06 09:14:28;;;;;;;2.03;0.50;;;;;;;;;;5013425;28;20212;-77
2022/08/06 09:16:53;;;;;;;1.67;0.55;;;;;;;;;;5012859;28;20228;-77
2022/08/06 09:19:18;;;;;;;2.63;0.60;;;;;;;;;;5012731;28;20239;-73
2022/08/06 09:21:44;;;;;;;4.65;0.70;;;;;;;;;;5013285;28;20258;-74
2022/08/06 09:24:09;;;;;;;1.42;0.68;;;;;;;;;;5013911;28;20244;-73
2022/08/06 09:26:34;;;;;;;2.30;0.57;;;;;;;;;;5013170;28;20577;-73
2022/08/06 09:29:00;;;;;;;2.78;0.47;;;;;;;;;;5013959;28;20278;-73
2022/08/06 09:31:25;;;;;;;3.20;0.70;;;;;;;;;;5012347;28;20205;-74
2022/08/06 09:33:53;;;;;;;2.47;0.60;;;;;;;;;;5011728;28;20738;-72
2022/08/06 09:36:18;;;;;;;5.10;0.70;;;;;;;;;;5013342;28;20220;-72
2022/08/06 09:38:52;;;;;;;2.90;0.50;;;;;;;;;;5013748;28;20254;-64
2022/08/06 09:41:18;;;;;;;2.28;0.55;;;;;;;;;;5007879;28;20212;-65
2022/08/06 09:43:44;;;;;;;1.88;0.43;;;;;;;;;;5013648;28;20573;-65
2022/08/06 09:46:09;;;;;;;1.52;0.50;;;;;;;;;;5013170;28;20212;-65
2022/08/06 09:48:35;;;;;;;1.42;0.50;;;;;;;;;;5012710;28;20303;-65
2022/08/06 09:51:00;;;;;;;2.15;0.40;;;;;;;;;;5012378;28;20291;-65
2022/08/06 09:53:25;;;;;;;2.88;0.50;;;;;;;;;;5012523;28;20204;-66
2022/08/06 09:55:52;;;;;;;1.73;0.47;;;;;;;;;;5012362;28;20220;-65
2022/08/06 09:58:31;;;;;;;3.58;0.63;;;;;;;;;;5011535;28;20213;-65
2022/08/06 10:00:56;;;;;;;2.78;0.40;;;;;;;;;;5013323;28;20675;-66
2022/08/06 10:03:21;;;;;;;2.28;0.55;;;;;;;;;;5011875;28;20243;-67
2022/08/06 10:05:47;;;;;;;2.20;0.50;;;;;;;;;;5013206;28;20208;-66
2022/08/06 10:08:16;;;;;;;3.47;0.68;;;;;;;;;;5011478;28;20212;-66
2022/08/06 10:10:41;;;;;;;2.58;0.70;;;;;;;;;;5012076;28;20222;-66
2022/08/06 10:13:10;;;;;;;2.70;0.50;;;;;;;;;;5012470;28;20295;-66
2022/08/06 10:15:35;;;;;;;3.25;0.75;;;;;;;;;;5013027;28;20238;-66
2022/08/06 10:18:01;;;;;;;4.80;0.70;;;;;;;;;;5011741;28;20216;-65
2022/08/06 10:20:26;;;;;;;4.30;0.80;;;;;;;;;;5013153;28;20212;-66
2022/08/06 10:22:53;;;;;;;2.20;0.60;;;;;;;;;;5012407;28;20208;-65
2022/08/06 10:25:19;;;;;;;2.28;0.43;;;;;;;;;;5012216;28;20243;-65
2022/08/06 10:27:44;;;;;;;3.92;0.80;;;;;;;;;;5013058;28;20604;-65
2022/08/06 10:30:10;;;;;;;2.75;0.50;;;;;;;;;;5011678;28;20251;-66
2022/08/06 10:32:37;;;;;;;1.77;0.65;;;;;;;;;;5013026;28;20219;-65
2022/08/06 10:35:03;;;;;;;1.50;0.50;;;;;;;;;;5012461;28;20273;-65
2022/08/06 10:37:29;;;;;;;3.58;0.65;;;;;;;;;;5012225;28;20265;-65
2022/08/06 10:39:56;;;;;;;4.30;0.88;;;;;;;;;;5011122;28;20247;-65
2022/08/06 10:42:21;;;;;;;3.28;0.70;;;;;;;;;;5011203;28;20243;-65
2022/08/06 10:44:46;;;;;;;2.47;0.73;;;;;;;;;;5010703;28;20746;-65
2022/08/06 10:47:12;;;;;;;3.42;0.50;;;;;;;;;;5012452;28;20222;-65
2022/08/06 10:49:37;;;;;;;2.55;0.70;;;;;;;;;;5012776;28;20215;-65
2022/08/06 10:52:02;;;;;;;2.17;0.60;;;;;;;;;;5010764;28;20619;-65
2022/08/06 10:54:27;;;;;;;2.92;0.50;;;;;;;;;;5011146;28;20220;-65
2022/08/06 10:56:54;;;;;;;1.55;0.57;;;;;;;;;;5012971;28;20212;-65
2022/08/06 10:59:19;;;;;;;2.53;0.75;;;;;;;;;;5011450;28;20243;-63
2022/08/06 11:01:46;;;;;;;1.33;0.50;;;;;;;;;;5012539;28;20660;-64
2022/08/06 11:04:21;;;;;;;2.33;0.60;;;;;;;;;;5010831;28;20275;-66
2022/08/06 11:06:56;;;;;;;2.75;0.50;;;;;;;;;;5010519;28;20219;-66
2022/08/06 11:09:37;;;;;;;1.67;0.60;;;;;;;;;;5010474;28;20661;-65
2022/08/06 11:12:19;;;;;;;3.00;0.70;;;;;;;;;;5011279;28;20310;-65
2022/08/06 11:14:45;;;;;;;2.88;0.52;;;;;;;;;;5010893;28;20317;-65
2022/08/06 11:17:10;;;;;;;1.50;0.50;;;;;;;;;;5010839;28;20679;-65
2022/08/06 11:19:39;;;;;;;3.03;0.60;;;;;;;;;;5010275;28;20219;-65
2022/08/06 11:22:04;;;;;;;2.17;0.60;;;;;;;;;;5012023;28;20276;-65
2022/08/06 11:24:29;;;;;;;2.80;0.70;;;;;;;;;;5015639;28;20691;-65
2022/08/06 11:26:55;;;;;;;2.90;0.90;;;;;;;;;;5015518;28;20682;-65
2022/08/06 11:29:20;;;;;;;3.40;0.80;;;;;;;;;;5014408;28;20228;-64
2022/08/06 11:31:47;;;;;;;1.55;0.60;;;;;;;;;;5016435;28;20282;-65
2022/08/06 11:34:14;;;;;;;4.32;0.63;;;;;;;;;;5014912;28;20243;-63
2022/08/06 11:36:58;;;;;;;4.22;0.60;;;;;;;;;;5016209;28;20672;-66
2022/08/06 11:39:24;;;;;;;4.32;0.70;;;;;;;;;;5015136;28;20212;-68
2022/08/06 11:41:51;;;;;;;6.68;0.82;;;;;;;;;;5014674;28;20701;-66
2022/08/06 11:44:18;;;;;;;3.88;0.73;;;;;;;;;;5012462;28;20269;-66
2022/08/06 11:46:45;;;;;;;3.42;0.63;;;;;;;;;;5014640;28;20219;-66
2022/08/06 11:49:12;;;;;;;2.15;0.60;;;;;;;;;;5014682;28;20224;-66
2022/08/06 11:51:40;;;;;;;2.03;0.65;;;;;;;;;;5015559;28;20308;-66
2022/08/06 11:54:11;;;;;;;2.58;0.63;;;;;;;;;;5014767;28;20212;-66
2022/08/06 11:56:55;;;;;;;2.95;0.70;;;;;;;;;;5004943;28;20583;-66
2022/08/06 11:59:20;;;;;;;3.65;0.70;;;;;;;;;;4991993;28;20220;-65
2022/08/06 12:01:46;;;;;;;2.47;0.60;;;;;;;;;;5000409;28;20580;-67
2022/08/06 12:04:44;;;;;;;4.15;1.00;;;;;;;;;;5000702;28;20216;-66
2022/08/06 12:07:23;;;;;;;2.55;0.75;;;;;;;;;;4991352;28;20248;-66
2022/08/06 12:09:59;;;;;;;2.45;0.70;;;;;;;;;;5007244;28;20223;-65
2022/08/06 12:12:25;;;;;;;3.15;0.50;;;;;;;;;;5002696;28;20216;-65
2022/08/06 12:14:51;;;;;;;1.90;0.47;;;;;;;;;;4995084;28;20229;-65
2022/08/06 12:17:17;;;;;;;2.92;0.60;;;;;;;;;;4988846;28;20224;-64
2022/08/06 12:19:44;;;;;;;2.63;0.60;;;;;;;;;;5004673;28;20213;-65
2022/08/06 12:22:09;;;;;;;6.40;0.80;;;;;;;;;;5000993;28;20270;-64
2022/08/06 12:24:34;;;;;;;4.00;0.60;;;;;;;;;;4990062;28;20643;-65
2022/08/06 12:27:00;;;;;;;1.20;0.50;;;;;;;;;;4984075;28;20216;-64
2022/08/06 12:29:29;;;;;;;1.75;0.60;;;;;;;;;;4988387;28;20773;-64
2022/08/06 12:31:54;;;;;;;5.93;0.68;;;;;;;;;;4998086;28;20209;-65
2022/08/06 12:34:24;;;;;;;1.60;0.65;;;;;;;;;;5006198;28;20282;-64
2022/08/06 12:36:50;;;;;;;2.15;0.70;;;;;;;;;;5008064;28;20225;-64
2022/08/06 12:39:15;;;;;;;2.08;0.60;;;;;;;;;;4994377;28;20631;-64
2022/08/06 12:41:41;;;;;;;4.90;0.77;;;;;;;;;;4989259;28;20311;-65
2022/08/06 12:44:06;;;;;;;2.08;0.75;;;;;;;;;;4981282;28;20221;-66
2022/08/06 12:46:32;;;;;;;2.63;0.47;;;;;;;;;;4981238;28;20213;-66
2022/08/06 12:48:57;;;;;;;2.30;0.50;;;;;;;;;;4981409;28;20213;-67
2022/08/06 12:51:22;;;;;;;3.58;0.77;;;;;;;;;;5006170;28;20212;-67
2022/08/06 12:53:49;;;;;;;2.53;0.80;;;;;;;;;;4992207;28;20213;-68
2022/08/06 12:56:15;;;;;;;2.42;0.70;;;;;;;;;;5005917;28;20267;-68
2022/08/06 12:58:41;;;;;;;3.55;0.63;;;;;;;;;;5007540;28;20696;-68
2022/08/06 13:01:06;;;;;;;1.13;0.65;;;;;;;;;;5007301;28;20216;-67
2022/08/06 13:03:32;;;;;;;1.92;0.65;;;;;;;;;;5007813;28;20640;-66
2022/08/06 13:05:58;;;;;;;2.05;0.60;;;;;;;;;;4992627;28;20260;-67
2022/08/06 13:08:24;;;;;;;2.92;0.70;;;;;;;;;;4999391;28;20209;-69
2022/08/06 13:10:49;;;;;;;5.30;1.00;;;;;;;;;;4998361;28;20404;-68
2022/08/06 13:13:15;;;;;;;1.52;0.60;;;;;;;;;;4993016;28;20212;-68
2022/08/06 13:15:40;;;;;;;3.85;0.75;;;;;;;;;;4988888;28;20232;-69
2022/08/06 13:18:06;;;;;;;4.28;0.80;;;;;;;;;;5006554;28;20350;-69
2022/08/06 13:20:40;;;;;;;3.80;0.70;;;;;;;;;;5007037;28;20282;-69
2022/08/06 13:23:06;;;;;;;3.40;0.63;;;;;;;;;;5007127;28;20224;-69
2022/08/06 13:25:39;;;;;;;1.90;0.80;;;;;;;;;;5007073;28;20239;-69
2022/08/06 13:28:09;;;;;;;2.60;0.70;;;;;;;;;;5003653;28;20244;-69
2022/08/06 13:30:34;;;;;;;4.03;0.65;;;;;;;;;;4999713;28;20561;-69
2022/08/06 13:33:13;;;;;;;2.42;0.60;;;;;;;;;;4999202;28;20661;-69
2022/08/06 13:35:38;;;;;;;2.17;0.60;;;;;;;;;;5003815;28;20307;-70
2022/08/06 13:38:03;;;;;;;3.80;1.05;;;;;;;;;;4988415;28;20452;-68
2022/08/06 13:40:36;;;;;;;4.15;0.60;;;;;;;;;;5004745;28;20623;-69
2022/08/06 13:43:02;;;;;;;2.60;0.73;;;;;;;;;;5007407;28;20227;-68
2022/08/06 13:45:27;;;;;;;2.83;0.60;;;;;;;;;;5007050;28;20208;-69
2022/08/06 13:48:01;;;;;;;2.05;0.65;;;;;;;;;;5005609;28;20227;-69
2022/08/06 13:50:26;;;;;;;3.40;0.82;;;;;;;;;;5004535;28;20299;-69
2022/08/06 13:52:51;;;;;;;2.83;0.65;;;;;;;;;;4990285;28;20626;-69
2022/08/06 13:55:23;;;;;;;4.95;0.70;;;;;;;;;;4978741;28;20698;-69
2022/08/06 13:57:49;;;;;;;2.38;0.70;;;;;;;;;;5000015;28;20208;-69
2022/08/06 14:00:14;;;;;;;1.15;0.60;;;;;;;;;;5006610;28;20262;-70
2022/08/06 14:02:40;;;;;;;2.58;0.68;;;;;;;;;;5006071;28;20216;-68
2022/08/06 14:05:05;;;;;;;1.38;0.60;;;;;;;;;;5002437;28;20255;-68
2022/08/06 14:07:30;;;;;;;1.52;0.57;;;;;;;;;;4987687;28;20276;-69
2022/08/06 14:09:56;;;;;;;1.70;0.70;;;;;;;;;;5005401;28;20216;-67
2022/08/06 14:12:21;;;;;;;3.30;0.70;;;;;;;;;;5001779;28;20217;-69
2022/08/06 14:14:47;;;;;;;2.60;0.60;;;;;;;;;;4980954;28;20652;-69
2022/08/06 14:17:12;;;;;;;2.42;0.60;;;;;;;;;;4978642;28;20213;-69
2022/08/06 14:19:37;;;;;;;3.25;0.60;;;;;;;;;;4997398;28;20304;-69
2022/08/06 14:22:02;;;;;;;2.55;0.85;;;;;;;;;;5005325;28;20577;-67
2022/08/06 14:24:28;;;;;;;2.08;0.50;;;;;;;;;;5006649;28;20219;-69
2022/08/06 14:26:53;;;;;;;1.20;0.52;;;;;;;;;;5005101;28;20718;-69
2022/08/06 14:29:18;;;;;;;5.10;0.70;;;;;;;;;;5005654;28;20687;-69
2022/08/06 14:31:44;;;;;;;2.65;0.80;;;;;;;;;;5006506;28;20707;-69
2022/08/06 14:34:09;;;;;;;2.08;0.77;;;;;;;;;;4987035;28;20224;-69
2022/08/06 14:36:34;;;;;;;3.25;0.75;;;;;;;;;;4981941;28;20232;-68
2022/08/06 14:38:59;;;;;;;3.72;1.10;;;;;;;;;;4980038;28;20660;-69
2022/08/06 14:46:53;;;;;;;3.58;1.05;;;;;;;;;;5006517;28;20648;-68
2022/08/06 14:49:18;;;;;;;1.73;0.90;;;;;;;;;;5005836;28;20212;-68